createdAt,value
2019-04-11T00:00:36.807Z,101401.10
2019-04-11T00:03:07.118Z,101407.91
2019-04-11T00:05:37.141Z,101413.01
2019-04-11T00:08:08.026Z,101410.20
2019-04-11T00:10:38.124Z,101410.84
2019-04-11T00:13:18.273Z,101414.28
2019-04-11T00:15:40.457Z,101415.67
2019-04-11T00:18:10.531Z,101416.81
2019-04-11T00:20:40.812Z,101407.22
2019-04-11T00:23:10.649Z,101421.44
2019-04-11T00:25:40.512Z,101422.05
2019-04-11T00:28:10.415Z,101422.02
2019-04-11T00:30:40.671Z,101421.70
2019-04-11T00:33:10.544Z,101418.73
2019-04-11T00:35:40.399Z,101419.70
2019-04-11T00:38:10.309Z,101424.78
2019-04-11T00:40:41.514Z,101427.06
2019-04-11T00:43:11.589Z,101422.38
2019-04-11T00:45:41.800Z,101421.44
2019-04-11T00:48:11.969Z,101423.20
2019-04-11T00:50:43.331Z,101415.80
2019-04-11T00:53:13.937Z,101421.98
2019-04-11T00:55:43.964Z,101415.70
2019-04-11T00:58:13.848Z,101422.46
2019-04-11T01:00:44.971Z,101425.38
2019-04-11T01:03:14.882Z,101423.31
2019-04-11T01:05:45.685Z,101424.05
2019-04-11T01:08:15.776Z,101425.38
2019-04-11T01:10:45.728Z,101427.30
2019-04-11T01:13:15.804Z,101430.88
2019-04-11T01:15:52.931Z,101430.55
2019-04-11T01:18:22.806Z,101431.86
2019-04-11T01:20:53.681Z,101435.66
2019-04-11T01:23:24.075Z,101429.61
2019-04-11T01:25:55.331Z,101430.82
2019-04-11T01:28:26.818Z,101426.98
2019-04-11T01:31:03.468Z,101431.94
2019-04-11T01:33:33.386Z,101427.45
2019-04-11T01:36:03.234Z,101426.03
2019-04-11T01:38:34.739Z,101430.75
2019-04-11T01:41:04.688Z,101431.40
2019-04-11T01:43:35.719Z,101432.52
2019-04-11T01:46:06.132Z,101435.62
2019-04-11T01:48:43.854Z,101436.00
2019-04-11T01:51:13.845Z,101436.27
2019-04-11T01:53:43.710Z,101441.34
2019-04-11T01:56:14.853Z,101435.98
2019-04-11T01:58:44.879Z,101440.41
2019-04-11T02:01:25.022Z,101444.99
2019-04-11T02:04:19.464Z,101442.36
2019-04-11T02:06:49.991Z,101449.12
2019-04-11T02:09:20.073Z,101449.41
2019-04-11T02:11:50.026Z,101454.28
2019-04-11T02:14:21.473Z,101453.91
2019-04-11T02:16:52.261Z,101454.20
2019-04-11T02:19:22.465Z,101453.88
2019-04-11T02:21:54.047Z,101461.22
2019-04-11T02:24:45.839Z,101462.09
2019-04-11T02:27:25.953Z,101463.78
2019-04-11T02:29:56.270Z,101469.20
2019-04-11T02:32:28.631Z,101469.72
2019-04-11T02:34:59.312Z,101475.81
2019-04-11T02:37:31.124Z,101474.41
2019-04-11T02:40:03.060Z,101473.48
2019-04-11T02:42:34.925Z,101476.11
2019-04-11T02:45:23.090Z,101475.81
2019-04-11T02:47:39.483Z,101480.98
2019-04-11T02:50:10.470Z,101482.67
2019-04-11T02:52:42.115Z,101483.33
2019-04-11T02:55:13.121Z,101486.72
2019-04-11T02:57:45.904Z,101485.57
2019-04-11T03:00:17.910Z,101475.44
2019-04-11T03:02:50.224Z,101488.49
2019-04-11T03:05:21.485Z,101488.70
2019-04-11T03:07:52.576Z,101491.80
2019-04-11T03:10:24.883Z,101492.48
2019-04-11T03:12:56.616Z,101500.19
2019-04-11T03:15:41.529Z,101505.06
2019-04-11T03:18:01.916Z,101491.72
2019-04-11T03:20:38.424Z,101502.39
2019-04-11T03:23:07.447Z,101497.52
2019-04-11T03:25:36.393Z,101498.14
2019-04-11T03:28:13.406Z,101496.75
2019-04-11T03:30:59.138Z,101496.00
2019-04-11T03:34:01.279Z,101500.53
2019-04-11T03:38:38.610Z,101505.16
2019-04-11T03:41:08.722Z,101505.45
2019-04-11T03:43:30.246Z,101501.89
2019-04-11T03:46:11.784Z,101500.99
2019-04-11T03:48:33.358Z,101504.38
2019-04-11T03:50:56.693Z,101507.02
2019-04-11T03:53:29.577Z,101512.73
2019-04-11T03:55:57.356Z,101508.88
2019-04-11T03:58:29.218Z,101515.20
2019-04-11T04:01:03.342Z,101516.80
2019-04-11T04:03:31.431Z,101518.84
2019-04-11T04:06:04.437Z,101523.72
2019-04-11T04:08:36.324Z,101524.18
2019-04-11T04:11:19.058Z,101521.00
2019-04-11T04:14:04.177Z,101525.88
2019-04-11T04:16:59.813Z,101528.13
2019-04-11T04:19:38.054Z,101536.39
2019-04-11T04:22:22.893Z,101536.30
2019-04-11T04:24:55.464Z,101537.53
2019-04-11T04:27:27.899Z,101541.31
2019-04-11T04:30:01.502Z,101541.19
2019-04-11T04:32:30.437Z,101548.99
2019-04-11T04:35:01.805Z,101551.45
2019-04-11T04:37:34.655Z,101554.88
2019-04-11T04:40:23.862Z,101556.02
2019-04-11T04:42:42.874Z,101555.55
2019-04-11T04:45:10.154Z,101560.34
2019-04-11T04:47:47.607Z,101567.38
2019-04-11T04:50:13.348Z,101570.02
2019-04-11T04:52:44.980Z,101569.17
2019-04-11T04:55:14.964Z,101571.88
2019-04-11T04:57:44.996Z,101573.58
2019-04-11T05:00:15.734Z,101573.80
2019-04-11T05:02:46.142Z,101579.98
2019-04-11T05:05:17.714Z,101586.89
2019-04-11T05:07:49.706Z,101584.55
2019-04-11T05:10:22.150Z,101583.24
2019-04-11T05:12:52.344Z,101584.01
2019-04-11T05:15:22.205Z,101586.47
2019-04-11T05:17:53.310Z,101594.70
2019-04-11T05:20:23.866Z,101587.20
2019-04-11T05:22:53.919Z,101590.21
2019-04-11T05:25:23.760Z,101593.60
2019-04-11T05:27:54.042Z,101600.01
2019-04-11T05:30:25.249Z,101600.01
2019-04-11T05:32:55.782Z,101600.77
2019-04-11T05:35:26.862Z,101601.70
2019-04-11T05:37:57.909Z,101605.95
2019-04-11T05:40:28.158Z,101606.33
2019-04-11T05:42:59.592Z,101605.95
2019-04-11T05:45:29.594Z,101610.44
2019-04-11T05:48:01.118Z,101613.16
2019-04-11T05:50:34.097Z,101610.53
2019-04-11T05:53:05.613Z,101611.45
2019-04-11T05:55:41.581Z,101616.16
2019-04-11T05:58:12.762Z,101614.00
2019-04-11T06:00:59.569Z,101612.22
2019-04-11T06:03:30.244Z,101615.15
2019-04-11T06:06:37.783Z,101620.70
2019-04-11T06:09:16.143Z,101623.72
2019-04-11T06:11:59.580Z,101624.83
2019-04-11T06:14:37.536Z,101625.68
2019-04-11T06:17:11.427Z,101625.42
2019-04-11T06:19:59.297Z,101629.97
2019-04-11T06:22:29.747Z,101634.56
2019-04-11T06:25:30.378Z,101627.90
2019-04-11T06:28:11.735Z,101640.33
2019-04-11T06:31:20.086Z,101638.46
2019-04-11T06:33:57.380Z,101641.30
2019-04-11T06:37:05.525Z,101644.49
2019-04-11T06:39:40.059Z,101647.04
2019-04-11T06:42:30.164Z,101646.19
2019-04-11T06:45:22.118Z,101646.78
2019-04-11T06:48:26.718Z,101653.19
2019-04-11T06:51:26.084Z,101656.38
2019-04-11T06:54:14.799Z,101657.73
2019-04-11T06:56:47.579Z,101658.48
2019-04-11T06:59:24.031Z,101657.20
2019-04-11T07:01:55.047Z,101661.14
2019-04-11T07:04:29.923Z,101663.05
2019-04-11T07:07:00.763Z,101669.36
2019-04-11T07:10:07.968Z,101670.03
2019-04-11T07:12:42.774Z,101673.39
2019-04-11T07:15:35.504Z,101672.66
2019-04-11T07:18:24.693Z,101676.05
2019-04-11T07:21:06.340Z,101665.41
2019-04-11T07:23:54.005Z,101675.13
2019-04-11T07:26:52.237Z,101667.04
2019-04-11T07:29:50.738Z,101670.22
2019-04-11T07:32:23.648Z,101669.67
2019-04-11T07:35:12.866Z,101661.74
2019-04-11T07:37:47.608Z,101670.22
2019-04-11T07:40:37.105Z,101673.90
2019-04-11T07:43:29.250Z,101681.24
2019-04-11T07:46:17.119Z,101674.34
2019-04-11T07:48:48.059Z,101673.22
2019-04-11T07:51:25.823Z,101675.70
2019-04-11T07:53:56.882Z,101677.77
2019-04-11T07:56:35.176Z,101675.51
2019-04-11T07:59:08.140Z,101672.28
2019-04-11T08:02:00.087Z,101671.62
2019-04-11T08:04:55.365Z,101676.33
2019-04-11T08:07:44.841Z,101676.05
2019-04-11T08:10:21.296Z,101678.02
2019-04-11T08:12:51.930Z,101672.91
2019-04-11T08:15:40.374Z,101680.16
2019-04-11T08:18:32.797Z,101675.62
2019-04-11T08:21:21.889Z,101679.93
2019-04-11T08:23:54.178Z,101685.57
2019-04-11T08:26:42.236Z,101686.70
2019-04-11T08:29:15.522Z,101687.61
2019-04-11T08:32:02.840Z,101693.45
2019-04-11T08:34:37.511Z,101693.67
2019-04-11T08:37:24.947Z,101695.23
2019-04-11T08:39:57.638Z,101692.03
2019-04-11T08:42:46.559Z,101686.56
2019-04-11T08:45:17.501Z,101693.91
2019-04-11T08:47:54.541Z,101693.77
2019-04-11T08:50:26.176Z,101698.09
2019-04-11T08:53:17.035Z,101691.30
2019-04-11T08:55:55.772Z,101695.03
2019-04-11T08:58:40.621Z,101693.03
2019-04-11T09:01:18.416Z,101696.78
2019-04-11T09:04:15.282Z,101692.84
2019-04-11T09:06:47.082Z,101689.39
2019-04-11T09:09:36.453Z,101684.01
2019-04-11T09:12:10.119Z,101689.73
2019-04-11T09:14:58.010Z,101687.00
2019-04-11T09:17:31.535Z,101688.36
2019-04-11T09:20:21.411Z,101689.06
2019-04-11T09:23:02.086Z,101684.63
2019-04-11T09:26:08.362Z,101687.67
2019-04-11T09:28:45.815Z,101683.51
2019-04-11T09:31:41.748Z,101680.45
2019-04-11T09:34:37.669Z,101679.56
2019-04-11T09:37:44.501Z,101681.73
2019-04-11T09:40:43.770Z,101680.31
2019-04-11T09:43:15.942Z,101674.07
2019-04-11T09:46:06.299Z,101675.08
2019-04-11T09:48:46.496Z,101674.23
2019-04-11T09:51:35.880Z,101669.42
2019-04-11T09:54:17.588Z,101673.18
2019-04-11T09:57:05.518Z,101677.91
2019-04-11T09:59:51.852Z,101672.09
2019-04-11T10:02:39.747Z,101675.77
2019-04-11T10:05:10.795Z,101672.70
2019-04-11T10:07:57.951Z,101675.62
2019-04-11T10:10:46.563Z,101668.43
2019-04-11T10:13:31.065Z,101668.17
2019-04-11T10:16:24.136Z,101667.21
2019-04-11T10:19:07.665Z,101662.30
2019-04-11T10:21:39.529Z,101664.63
2019-04-11T10:24:20.947Z,101653.18
2019-04-11T10:26:58.472Z,101662.98
2019-04-11T10:29:54.602Z,101658.38
2019-04-11T10:32:27.543Z,101660.00
2019-04-11T10:35:17.606Z,101651.72
2019-04-11T10:37:47.722Z,101665.95
2019-04-11T10:40:41.921Z,101658.78
2019-04-11T10:43:11.973Z,101666.53
2019-04-11T10:46:01.099Z,101664.50
2019-04-11T10:48:45.319Z,101666.56
2019-04-11T10:51:37.943Z,101666.70
2019-04-11T10:54:08.819Z,101661.52
2019-04-11T10:56:50.014Z,101655.59
2019-04-11T10:59:21.577Z,101650.25
2019-04-11T11:02:10.598Z,101656.16
2019-04-11T11:04:48.449Z,101656.84
2019-04-11T11:07:22.451Z,101653.06
2019-04-11T11:10:03.176Z,101651.44
2019-04-11T11:12:57.342Z,101653.70
2019-04-11T11:15:29.477Z,101652.48
2019-04-11T11:18:53.067Z,101654.47
2019-04-11T11:21:03.640Z,101654.41
2019-04-11T11:23:52.472Z,101656.11
2019-04-11T11:26:28.253Z,101661.58
2019-04-11T11:29:34.954Z,101648.71
2019-04-11T11:32:11.845Z,101641.64
2019-04-11T11:35:01.142Z,101650.76
2019-04-11T11:37:43.520Z,101654.59
2019-04-11T11:40:41.147Z,101651.38
2019-04-11T11:43:25.280Z,101654.13
2019-04-11T11:46:25.498Z,101653.80
2019-04-11T11:49:12.108Z,101644.45
2019-04-11T11:52:11.329Z,101649.14
2019-04-11T11:54:46.062Z,101652.97
2019-04-11T11:57:35.207Z,101658.16
2019-04-11T12:00:31.755Z,101647.38
2019-04-11T12:03:23.418Z,101647.11
2019-04-11T12:05:56.676Z,101645.73
2019-04-11T12:08:54.701Z,101645.47
2019-04-11T12:11:26.141Z,101645.48
2019-04-11T12:14:29.521Z,101641.03
2019-04-11T12:17:24.908Z,101640.02
2019-04-11T12:20:06.380Z,101645.42
2019-04-11T12:22:31.246Z,101643.63
2019-04-11T12:25:09.757Z,101644.13
2019-04-11T12:27:58.295Z,101641.00
2019-04-11T12:30:37.392Z,101635.22
2019-04-11T12:33:25.687Z,101633.66
2019-04-11T12:36:01.305Z,101634.01
2019-04-11T12:38:59.311Z,101628.75
2019-04-11T12:41:45.994Z,101626.67
2019-04-11T12:44:49.990Z,101630.72
2019-04-11T12:47:38.649Z,101622.49
2019-04-11T12:50:28.916Z,101627.25
2019-04-11T12:53:12.806Z,101620.91
2019-04-11T12:56:00.597Z,101627.17
2019-04-11T12:58:49.399Z,101624.88
2019-04-11T13:01:37.049Z,101624.00
2019-04-11T13:04:25.310Z,101612.25
2019-04-11T13:07:12.927Z,101614.30
2019-04-11T13:10:14.210Z,101612.71
2019-04-11T13:13:18.851Z,101617.85
2019-04-11T13:15:58.944Z,101611.20
2019-04-11T13:19:03.123Z,101609.27
2019-04-11T13:21:55.865Z,101600.94
2019-04-11T13:24:45.000Z,101601.88
2019-04-11T13:27:34.271Z,101594.32
2019-04-11T13:30:38.039Z,101594.11
2019-04-11T13:33:17.473Z,101602.66
2019-04-11T13:36:01.461Z,101602.47
2019-04-11T13:38:34.125Z,101605.20
2019-04-11T13:41:23.172Z,101600.25
2019-04-11T13:44:10.963Z,101598.76
2019-04-11T13:46:59.894Z,101594.72
2019-04-11T13:49:48.756Z,101589.87
2019-04-11T13:52:37.674Z,101585.17
2019-04-11T13:55:09.756Z,101585.69
2019-04-11T13:57:58.699Z,101597.74
2019-04-11T14:00:59.790Z,101591.55
2019-04-11T14:03:48.991Z,101579.81
2019-04-11T14:06:51.831Z,101589.22
2019-04-11T14:09:34.217Z,101582.52
2019-04-11T14:12:09.124Z,101572.09
2019-04-11T14:14:41.199Z,101576.13
2019-04-11T14:17:36.873Z,101565.89
2019-04-11T14:20:29.820Z,101573.70
2019-04-11T14:23:24.384Z,101578.45
2019-04-11T14:26:12.751Z,101575.18
2019-04-11T14:28:52.771Z,101563.81
2019-04-11T14:31:36.994Z,101563.88
2019-04-11T14:34:25.395Z,101546.61
2019-04-11T14:37:13.208Z,101564.20
2019-04-11T14:39:45.559Z,101557.70
2019-04-11T14:42:45.790Z,101552.30
2019-04-11T14:45:24.714Z,101552.48
2019-04-11T14:48:17.314Z,101546.70
2019-04-11T14:51:15.956Z,101557.64
2019-04-11T14:54:01.571Z,101549.09
2019-04-11T14:56:31.986Z,101556.89
2019-04-11T14:59:16.299Z,101551.35
2019-04-11T15:01:48.180Z,101553.55
2019-04-11T15:04:36.364Z,101558.33
2019-04-11T15:07:06.169Z,101548.85
2019-04-11T15:09:46.739Z,101557.64
2019-04-11T15:12:19.983Z,101547.81
2019-04-11T15:15:19.269Z,101559.59
2019-04-11T15:17:51.260Z,101551.47
2019-04-11T15:20:55.286Z,101568.41
2019-04-11T15:23:29.519Z,101562.78
2019-04-11T15:26:24.421Z,101554.52
2019-04-11T15:29:00.876Z,101549.88
2019-04-11T15:31:59.526Z,101557.03
2019-04-11T15:34:37.040Z,101562.69
2019-04-11T15:37:20.455Z,101546.84
2019-04-11T15:40:08.075Z,101554.37
2019-04-11T15:43:12.673Z,101552.02
2019-04-11T15:46:10.497Z,101551.55
2019-04-11T15:48:59.335Z,101557.50
2019-04-11T15:51:35.303Z,101564.59
2019-04-11T15:54:27.511Z,101564.17
2019-04-11T15:57:00.531Z,101571.25
2019-04-11T15:59:55.870Z,101572.17
2019-04-11T16:02:47.735Z,101569.34
2019-04-11T16:05:48.884Z,101563.77
2019-04-11T16:08:39.446Z,101576.77
2019-04-11T16:11:32.403Z,101571.73
2019-04-11T16:14:18.942Z,101576.83
2019-04-11T16:17:14.018Z,101571.31
2019-04-11T16:20:17.759Z,101573.57
2019-04-11T16:23:02.921Z,101564.61
2019-04-11T16:25:32.843Z,101573.03
2019-04-11T16:28:25.145Z,101574.98
2019-04-11T16:30:59.717Z,101576.23
2019-04-11T16:33:45.871Z,101579.65
2019-04-11T16:36:18.084Z,101574.73
2019-04-11T16:39:07.030Z,101576.50
2019-04-11T16:41:55.041Z,101575.55
2019-04-11T16:44:31.566Z,101572.84
2019-04-11T16:47:19.058Z,101576.52
2019-04-11T16:49:48.939Z,101583.85
2019-04-11T16:52:18.869Z,101580.19
2019-04-11T16:54:48.869Z,101579.03
2019-04-11T16:57:18.756Z,101586.37
2019-04-11T16:59:49.789Z,101590.66
2019-04-11T17:02:21.888Z,101593.48
2019-04-11T17:04:55.592Z,101588.63
2019-04-11T17:07:42.849Z,101582.66
2019-04-11T17:10:13.717Z,101582.66
2019-04-11T17:12:43.897Z,101588.15
2019-04-11T17:15:13.874Z,101588.03
2019-04-11T17:17:43.790Z,101600.93
2019-04-11T17:20:15.231Z,101605.74
2019-04-11T17:22:46.708Z,101603.27
2019-04-11T17:25:17.585Z,101599.89
2019-04-11T17:27:50.693Z,101603.08
2019-04-11T17:30:24.517Z,101607.08
2019-04-11T17:32:55.548Z,101610.83
2019-04-11T17:35:23.895Z,101614.94
2019-04-11T17:37:53.914Z,101607.42
2019-04-11T17:40:23.782Z,101612.32
2019-04-11T17:42:53.575Z,101609.72
2019-04-11T17:45:23.910Z,101611.80
2019-04-11T17:47:54.806Z,101616.75
2019-04-11T17:50:25.941Z,101618.16
2019-04-11T17:52:56.257Z,101627.05
2019-04-11T17:55:26.328Z,101634.43
2019-04-11T17:57:57.607Z,101631.56
2019-04-11T18:00:34.170Z,101631.79
2019-04-11T18:03:04.356Z,101642.05
2019-04-11T18:05:34.621Z,101646.17
2019-04-11T18:08:04.854Z,101647.66
2019-04-11T18:10:34.736Z,101650.48
2019-04-11T18:13:04.710Z,101655.32
2019-04-11T18:15:35.061Z,101653.51
2019-04-11T18:18:06.117Z,101664.01
2019-04-11T18:20:36.990Z,101661.35
2019-04-11T18:23:08.117Z,101670.61
2019-04-11T18:25:38.503Z,101669.28
2019-04-11T18:28:09.074Z,101671.25
2019-04-11T18:30:40.190Z,101680.05
2019-04-11T18:33:10.146Z,101675.59
2019-04-11T18:35:40.265Z,101683.31
2019-04-11T18:38:10.212Z,101686.20
2019-04-11T18:40:40.894Z,101683.79
2019-04-11T18:43:11.189Z,101690.78
2019-04-11T18:45:41.167Z,101692.59
2019-04-11T18:48:11.153Z,101702.27
2019-04-11T18:50:41.428Z,101695.15
2019-04-11T18:53:11.446Z,101714.81
2019-04-11T18:55:42.468Z,101710.22
2019-04-11T18:58:12.547Z,101717.20
2019-04-11T19:00:42.776Z,101719.85
2019-04-11T19:03:14.405Z,101718.89
2019-04-11T19:05:45.832Z,101720.48
2019-04-11T19:08:16.018Z,101723.96
2019-04-11T19:10:46.118Z,101730.09
2019-04-11T19:13:18.674Z,101728.03
2019-04-11T19:15:49.134Z,101736.34
2019-04-11T19:18:19.166Z,101737.77
2019-04-11T19:20:50.307Z,101733.77
2019-04-11T19:23:23.894Z,101736.05
2019-04-11T19:25:53.909Z,101741.58
2019-04-11T19:28:25.222Z,101737.75
2019-04-11T19:30:56.970Z,101741.47
2019-04-11T19:33:27.118Z,101736.03
2019-04-11T19:35:57.214Z,101734.11
2019-04-11T19:38:29.731Z,101735.15
2019-04-11T19:41:00.040Z,101740.81
2019-04-11T19:43:30.420Z,101737.91
2019-04-11T19:46:01.428Z,101741.85
2019-04-11T19:48:31.635Z,101741.81
2019-04-11T19:51:01.618Z,101747.55
2019-04-11T19:53:33.044Z,101744.27
2019-04-11T19:56:40.735Z,101744.82
2019-04-11T19:59:10.678Z,101746.98
2019-04-11T20:01:40.598Z,101736.50
2019-04-11T20:04:10.697Z,101739.14
2019-04-11T20:06:40.896Z,101739.10
2019-04-11T20:09:11.106Z,101740.97
2019-04-11T20:11:44.895Z,101743.81
2019-04-11T20:14:15.343Z,101744.81
2019-04-11T20:16:49.004Z,101741.61
2019-04-11T20:19:18.753Z,101744.36
2019-04-11T20:21:48.711Z,101745.05
2019-04-11T20:24:19.005Z,101749.34
2019-04-11T20:26:50.365Z,101747.83
2019-04-11T20:29:22.138Z,101744.75
2019-04-11T20:31:52.245Z,101746.19
2019-04-11T20:34:27.765Z,101748.53
2019-04-11T20:36:53.969Z,101747.78
2019-04-11T20:39:23.958Z,101751.95
2019-04-11T20:41:54.232Z,101759.81
2019-04-11T20:44:27.178Z,101752.77
2019-04-11T20:47:00.106Z,101753.72
2019-04-11T20:49:28.879Z,101755.41
2019-04-11T20:51:59.354Z,101750.70
2019-04-11T20:54:29.625Z,101750.91
2019-04-11T20:56:59.581Z,101755.30
2019-04-11T20:59:34.703Z,101753.23
2019-04-11T21:02:01.181Z,101754.55
2019-04-11T21:04:31.856Z,101760.41
2019-04-11T21:07:02.617Z,101757.87
2019-04-11T21:09:33.328Z,101759.48
2019-04-11T21:12:05.009Z,101761.61
2019-04-11T21:14:35.889Z,101761.81
2019-04-11T21:17:05.840Z,101758.05
2019-04-11T21:19:35.735Z,101764.48
2019-04-11T21:22:05.654Z,101765.75
2019-04-11T21:24:36.181Z,101775.56
2019-04-11T21:27:06.199Z,101773.40
2019-04-11T21:29:36.160Z,101775.95
2019-04-11T21:32:06.164Z,101778.22
2019-04-11T21:34:36.018Z,101778.32
2019-04-11T21:37:05.990Z,101778.52
2019-04-11T21:39:35.973Z,101781.20
2019-04-11T21:42:07.203Z,101780.92
2019-04-11T21:44:37.187Z,101785.25
2019-04-11T21:47:07.905Z,101787.05
2019-04-11T21:49:38.191Z,101790.07
2019-04-11T21:52:11.995Z,101799.25
2019-04-11T21:54:39.902Z,101796.33
2019-04-11T21:57:10.165Z,101801.61
2019-04-11T21:59:40.145Z,101802.55
2019-04-11T22:02:12.043Z,101805.38
2019-04-11T22:04:42.099Z,101804.75
2019-04-11T22:07:12.543Z,101805.80
2019-04-11T22:09:43.814Z,101806.36
2019-04-11T22:12:13.856Z,101802.59
2019-04-11T22:14:44.191Z,101808.62
2019-04-11T22:17:15.897Z,101806.55
2019-04-11T22:20:07.117Z,101804.50
2019-04-11T22:22:37.019Z,101805.63
2019-04-11T22:25:07.869Z,101813.06
2019-04-11T22:27:37.742Z,101811.84
2019-04-11T22:30:08.468Z,101813.75
2019-04-11T22:32:39.584Z,101814.10
2019-04-11T22:35:09.550Z,101813.37
2019-04-11T22:37:39.721Z,101820.98
2019-04-11T22:40:09.933Z,101815.55
2019-04-11T22:42:39.802Z,101825.59
2019-04-11T22:45:09.993Z,101827.22
2019-04-11T22:47:40.300Z,101828.55
2019-04-11T22:50:10.849Z,101825.81
2019-04-11T22:52:42.222Z,101830.33
2019-04-11T22:55:12.944Z,101825.52
2019-04-11T22:57:43.705Z,101825.38
2019-04-11T23:00:15.210Z,101826.22
2019-04-11T23:02:51.566Z,101823.87
2019-04-11T23:05:21.419Z,101822.09
2019-04-11T23:07:51.792Z,101820.48
2019-04-11T23:10:21.628Z,101824.73
2019-04-11T23:12:51.413Z,101827.22
2019-04-11T23:15:21.342Z,101826.37
2019-04-11T23:17:51.492Z,101826.28
2019-04-11T23:20:21.418Z,101825.20
2019-04-11T23:22:51.200Z,101829.23
2019-04-11T23:25:20.993Z,101832.81
2019-04-11T23:27:50.947Z,101830.64
2019-04-11T23:30:20.867Z,101828.95
2019-04-11T23:32:51.720Z,101834.78
2019-04-11T23:35:21.823Z,101835.54
2019-04-11T23:37:52.093Z,101840.64
2019-04-11T23:40:23.099Z,101839.93
2019-04-11T23:42:53.246Z,101837.67
2019-04-11T23:45:25.739Z,101837.46
2019-04-11T23:47:56.884Z,101844.05
2019-04-11T23:50:27.223Z,101842.36
2019-04-11T23:52:58.094Z,101841.72
2019-04-11T23:55:30.737Z,101848.31
2019-04-11T23:58:01.694Z,101845.20
